createdAt,value
2023-06-29T06:45:31.675Z,22.00
2023-06-29T06:47:58.505Z,22.10
2023-06-29T06:50:25.264Z,22.10
2023-06-29T06:52:52.002Z,22.20
2023-06-29T06:55:19.297Z,22.20
2023-06-29T06:57:48.802Z,22.20
2023-06-29T07:00:16.031Z,22.20
2023-06-29T07:02:42.914Z,22.20
2023-06-29T07:05:12.295Z,22.20
2023-06-29T07:07:41.676Z,22.20
2023-06-29T07:10:08.507Z,22.20
2023-06-29T07:12:35.207Z,22.20
2023-06-29T07:15:01.985Z,22.10
2023-06-29T07:17:33.434Z,22.20
2023-06-29T07:25:02.125Z,22.30
2023-06-29T07:27:28.934Z,22.30
2023-06-29T07:29:56.663Z,22.30
2023-06-29T07:32:23.441Z,22.30
2023-06-29T07:34:50.250Z,22.30
2023-06-29T07:37:17.024Z,22.30
2023-06-29T07:39:43.803Z,22.30
2023-06-29T07:42:30.053Z,22.30
2023-06-29T07:45:05.077Z,22.30
2023-06-29T07:47:31.892Z,22.30
2023-06-29T07:49:58.718Z,22.20
2023-06-29T07:52:26.358Z,22.20
2023-06-29T07:54:55.583Z,22.20
2023-06-29T07:59:51.962Z,22.10
2023-06-29T08:02:18.758Z,22.20
2023-06-29T08:07:20.222Z,22.20
2023-06-29T08:09:47.054Z,22.20
2023-06-29T08:12:13.777Z,22.10
2023-06-29T08:14:40.528Z,22.20
2023-06-29T08:17:07.434Z,22.20
2023-06-29T08:19:34.298Z,22.20
2023-06-29T08:22:01.080Z,22.30
2023-06-29T08:24:27.811Z,22.30
2023-06-29T08:26:56.750Z,22.40
2023-06-29T08:29:25.704Z,22.40
2023-06-29T08:31:53.067Z,22.50
2023-06-29T08:39:16.321Z,23.00
2023-06-29T08:41:43.079Z,23.00
2023-06-29T08:44:10.135Z,23.00
2023-06-29T08:46:39.867Z,23.10
2023-06-29T08:49:09.168Z,23.10
2023-06-29T08:51:40.029Z,23.20
2023-06-29T08:54:08.160Z,23.20
2023-06-29T08:56:37.542Z,23.30
2023-06-29T08:59:04.634Z,23.30
2023-06-29T09:01:34.911Z,23.30
2023-06-29T09:04:04.354Z,23.30
2023-06-29T09:06:31.139Z,23.30
2023-06-29T09:13:54.884Z,23.70
2023-06-29T09:18:50.485Z,24.50
2023-06-29T09:21:20.018Z,24.10
2023-06-29T09:23:50.561Z,24.10
2023-06-29T09:26:18.723Z,24.10
2023-06-29T09:28:46.594Z,24.10
2023-06-29T09:31:13.810Z,24.10
2023-06-29T09:33:43.070Z,24.10
2023-06-29T09:36:10.086Z,24.40
2023-06-29T09:38:37.759Z,24.40
2023-06-29T09:41:09.348Z,24.50
2023-06-29T09:43:36.319Z,24.50
2023-06-29T09:46:08.391Z,24.60
2023-06-29T09:51:25.072Z,24.60
2023-06-29T09:53:54.356Z,24.70
2023-06-29T09:56:22.002Z,24.80
2023-06-29T09:58:50.827Z,24.90
2023-06-29T10:01:19.624Z,25.20
2023-06-29T10:03:46.417Z,25.20
2023-06-29T10:06:17.606Z,25.40
2023-06-29T10:08:54.888Z,25.60
2023-06-29T10:11:24.554Z,25.90
2023-06-29T10:13:54.450Z,26.00
2023-06-29T10:16:24.322Z,26.00
2023-06-29T10:18:55.325Z,25.80
2023-06-29T10:21:22.284Z,25.80
2023-06-29T10:23:52.063Z,25.70
2023-06-29T10:26:19.407Z,25.70
2023-06-29T10:28:46.344Z,25.80
2023-06-29T10:31:20.321Z,25.90
2023-06-29T10:33:49.015Z,25.80
2023-06-29T10:36:18.322Z,25.80
2023-06-29T10:38:45.350Z,25.80
2023-06-29T10:41:30.497Z,25.70
2023-06-29T10:44:01.900Z,25.80
2023-06-29T10:46:51.155Z,25.80
2023-06-29T10:49:26.008Z,25.80
2023-06-29T10:51:54.923Z,25.80
2023-06-29T10:54:25.830Z,25.90
2023-06-29T10:57:01.714Z,25.90
2023-06-29T10:59:29.475Z,26.10
2023-06-29T11:01:56.631Z,26.30
2023-06-29T11:06:51.998Z,26.40
2023-06-29T11:09:21.519Z,26.40
2023-06-29T11:11:50.563Z,26.40
2023-06-29T11:14:20.376Z,26.40
2023-06-29T11:16:48.449Z,26.40
2023-06-29T11:19:15.642Z,26.30
2023-06-29T11:21:42.934Z,26.30
2023-06-29T11:24:10.943Z,26.20
2023-06-29T11:26:37.806Z,26.20
2023-06-29T11:29:07.605Z,26.20
2023-06-29T11:31:34.374Z,26.20
2023-06-29T11:34:01.521Z,26.20
2023-06-29T11:36:34.422Z,26.20
2023-06-29T11:39:11.827Z,26.20
2023-06-29T11:41:40.785Z,26.10
2023-06-29T11:44:10.404Z,26.00
2023-06-29T11:46:40.818Z,25.90
2023-06-29T11:49:07.697Z,25.80
2023-06-29T11:51:39.407Z,25.70
2023-06-29T11:54:08.464Z,25.60
2023-06-29T11:56:42.579Z,25.50
2023-06-29T11:59:18.675Z,25.50
2023-06-29T12:01:45.721Z,25.40
2023-06-29T12:04:15.993Z,25.40
2023-06-29T12:06:52.054Z,25.40
2023-06-29T12:09:19.433Z,25.40
2023-06-29T12:11:46.352Z,25.50
2023-06-29T12:14:13.288Z,25.50
2023-06-29T12:19:13.892Z,25.60
2023-06-29T12:21:42.025Z,25.50
2023-06-29T12:24:17.688Z,25.70
2023-06-29T12:26:44.440Z,25.70
2023-06-29T12:29:11.252Z,25.70
2023-06-29T12:31:38.021Z,25.70
2023-06-29T12:34:04.804Z,25.70
2023-06-29T12:36:34.279Z,25.70
2023-06-29T12:39:01.091Z,25.70
2023-06-29T12:41:27.807Z,25.70
2023-06-29T12:43:54.571Z,25.80
2023-06-29T12:46:24.288Z,25.80
2023-06-29T12:48:53.232Z,25.80
2023-06-29T12:51:19.954Z,25.90
2023-06-29T12:53:46.703Z,25.90
2023-06-29T12:56:13.437Z,25.90
2023-06-29T12:58:40.164Z,25.90
2023-06-29T13:01:07.410Z,25.90
2023-06-29T13:03:34.385Z,25.90
2023-06-29T13:06:01.256Z,25.80
2023-06-29T13:08:28.080Z,25.90
2023-06-29T13:10:55.661Z,25.90
2023-06-29T13:13:22.381Z,25.80
2023-06-29T13:15:49.266Z,25.80
2023-06-29T13:18:16.415Z,25.80
2023-06-29T13:20:43.340Z,25.80
2023-06-29T13:23:10.053Z,25.80
2023-06-29T13:25:36.763Z,25.70
2023-06-29T13:28:03.590Z,25.70
2023-06-29T13:30:33.451Z,25.70
2023-06-29T13:33:00.331Z,25.70
2023-06-29T13:35:28.254Z,25.60
2023-06-29T13:37:55.069Z,25.50
2023-06-29T13:40:21.814Z,25.50
2023-06-29T13:42:48.691Z,25.40
2023-06-29T13:45:20.537Z,25.40
2023-06-29T13:47:47.446Z,25.40
2023-06-29T13:50:15.222Z,25.40
2023-06-29T13:52:43.443Z,25.40
2023-06-29T13:55:12.653Z,25.40
2023-06-29T13:57:39.278Z,25.30
2023-06-29T14:00:06.857Z,25.30
2023-06-29T14:02:33.619Z,25.30
2023-06-29T14:05:00.387Z,25.20
2023-06-29T14:07:27.268Z,25.20
2023-06-29T14:09:56.297Z,25.20
2023-06-29T14:12:23.051Z,25.20
2023-06-29T14:14:50.398Z,25.10
2023-06-29T14:17:22.168Z,25.10
2023-06-29T14:19:54.305Z,25.10
2023-06-29T14:22:21.507Z,25.10
2023-06-29T14:24:48.245Z,25.10
2023-06-29T14:27:17.880Z,25.10
2023-06-29T14:29:47.146Z,25.20
2023-06-29T14:32:14.781Z,25.20
2023-06-29T14:34:48.951Z,25.20
2023-06-29T14:37:18.329Z,25.20
2023-06-29T14:39:47.158Z,25.20
2023-06-29T14:42:13.896Z,25.20
2023-06-29T14:44:42.862Z,25.30
2023-06-29T14:47:11.300Z,25.30
2023-06-29T14:49:38.070Z,25.30
2023-06-29T14:52:07.599Z,25.40
2023-06-29T14:54:34.446Z,25.40
2023-06-29T14:57:01.459Z,25.50
2023-06-29T14:59:28.180Z,25.40
2023-06-29T15:01:57.263Z,25.40
2023-06-29T15:04:26.309Z,25.40
2023-06-29T15:06:54.074Z,25.40
2023-06-29T15:09:21.072Z,25.30
2023-06-29T15:11:50.945Z,25.30
2023-06-29T15:14:17.671Z,25.30
2023-06-29T15:16:44.508Z,25.20
2023-06-29T15:19:11.340Z,25.20
2023-06-29T15:21:40.430Z,25.10
2023-06-29T15:24:08.390Z,25.10
2023-06-29T15:26:37.421Z,25.10
2023-06-29T15:29:07.436Z,25.10
2023-06-29T15:31:34.384Z,25.00
2023-06-29T15:34:01.201Z,25.00
2023-06-29T15:36:27.938Z,24.90
2023-06-29T15:38:54.699Z,24.90
2023-06-29T15:41:23.998Z,24.90
2023-06-29T15:44:01.965Z,24.80
2023-06-29T15:46:29.266Z,24.80
2023-06-29T15:49:00.781Z,24.80
2023-06-29T15:51:27.616Z,24.70
2023-06-29T15:53:55.200Z,24.70
2023-06-29T15:56:24.431Z,24.70
2023-06-29T15:58:51.322Z,24.70
2023-06-29T16:01:18.132Z,24.70
2023-06-29T16:03:44.958Z,24.70
2023-06-29T16:06:14.059Z,24.70
2023-06-29T16:08:40.822Z,24.70
2023-06-29T16:11:07.597Z,24.70
2023-06-29T16:13:34.362Z,24.60
2023-06-29T16:16:01.160Z,24.50
2023-06-29T16:18:30.364Z,24.60
2023-06-29T16:20:59.306Z,24.60
2023-06-29T16:23:26.015Z,24.60
2023-06-29T16:25:52.754Z,24.60
2023-06-29T16:28:19.560Z,24.50
2023-06-29T16:30:46.274Z,24.50
2023-06-29T16:33:15.530Z,24.50
2023-06-29T16:35:42.424Z,24.50
2023-06-29T16:38:11.571Z,24.50
2023-06-29T16:40:40.779Z,24.50
2023-06-29T16:43:09.920Z,24.50
2023-06-29T16:45:38.816Z,24.50
2023-06-29T16:48:05.948Z,24.60
2023-06-29T16:50:33.011Z,24.60
2023-06-29T16:52:59.800Z,24.60
2023-06-29T16:55:28.945Z,24.60
2023-06-29T16:58:00.629Z,24.60
2023-06-29T17:00:27.323Z,24.50
2023-06-29T17:02:56.595Z,24.50
2023-06-29T17:05:23.493Z,24.60
2023-06-29T17:07:54.055Z,24.60
2023-06-29T17:10:24.619Z,24.50
2023-06-29T17:12:52.548Z,24.60
2023-06-29T17:15:19.969Z,24.50
2023-06-29T17:17:47.008Z,24.50
2023-06-29T17:20:14.299Z,24.50
2023-06-29T17:22:43.303Z,24.50
2023-06-29T17:25:10.209Z,24.50
2023-06-29T17:27:36.906Z,24.50
2023-06-29T17:30:03.875Z,24.50
2023-06-29T17:32:30.762Z,24.40
2023-06-29T17:34:58.572Z,24.50
2023-06-29T17:37:25.418Z,24.50
2023-06-29T17:39:54.306Z,24.50
2023-06-29T17:42:24.154Z,24.50
2023-06-29T17:44:51.040Z,24.40
2023-06-29T17:47:20.046Z,24.50
2023-06-29T17:49:46.833Z,24.50
2023-06-29T17:52:13.573Z,24.40
2023-06-29T17:54:42.671Z,24.40
2023-06-29T17:57:09.499Z,24.40
2023-06-29T17:59:36.496Z,24.40
2023-06-29T18:02:03.368Z,24.40
2023-06-29T18:04:32.254Z,24.40
2023-06-29T18:07:00.541Z,24.40
2023-06-29T18:09:27.617Z,24.40
2023-06-29T18:11:56.706Z,24.40
2023-06-29T18:14:23.485Z,24.40
2023-06-29T18:16:52.682Z,24.40
2023-06-29T18:19:19.448Z,24.40
2023-06-29T18:21:46.219Z,24.40
2023-06-29T18:24:15.234Z,24.40
2023-06-29T18:26:42.011Z,24.40
2023-06-29T18:29:11.084Z,24.40
2023-06-29T18:31:38.700Z,24.50
2023-06-29T18:34:06.666Z,24.40
2023-06-29T18:36:35.667Z,24.40
2023-06-29T18:39:02.534Z,24.40
2023-06-29T18:41:31.603Z,24.40
2023-06-29T18:43:59.894Z,24.40
2023-06-29T18:46:28.879Z,24.40
2023-06-29T18:48:58.387Z,24.30
2023-06-29T18:51:26.003Z,24.30
2023-06-29T18:53:53.597Z,24.30
2023-06-29T18:56:20.960Z,24.30
2023-06-29T18:58:48.748Z,24.30
2023-06-29T19:01:16.122Z,24.30
2023-06-29T19:03:45.610Z,24.20
2023-06-29T19:06:12.788Z,24.20
2023-06-29T19:08:39.564Z,24.10
2023-06-29T19:11:06.344Z,24.00
2023-06-29T19:13:35.288Z,24.00
2023-06-29T19:16:04.712Z,24.00
2023-06-29T19:18:31.479Z,24.00
2023-06-29T19:21:02.423Z,24.00
2023-06-29T19:23:31.401Z,24.00
2023-06-29T19:25:58.173Z,24.00
2023-06-29T19:28:24.936Z,24.00
2023-06-29T19:30:51.651Z,23.90
2023-06-29T19:33:21.082Z,23.80
2023-06-29T19:35:50.303Z,23.80
2023-06-29T19:38:17.074Z,23.70
2023-06-29T19:40:43.852Z,23.70
2023-06-29T19:43:13.068Z,23.70
2023-06-29T19:45:39.845Z,23.70
2023-06-29T19:48:06.767Z,23.70
2023-06-29T19:50:33.825Z,23.60
2023-06-29T19:53:00.731Z,23.50
2023-06-29T19:55:30.162Z,23.50
2023-06-29T19:57:56.906Z,23.40
2023-06-29T20:00:24.157Z,23.40
2023-06-29T20:02:50.959Z,23.30
2023-06-29T20:05:20.411Z,23.30
2023-06-29T20:07:47.219Z,23.30
2023-06-29T20:10:14.025Z,23.30
2023-06-29T20:12:40.899Z,23.30
2023-06-29T20:15:10.074Z,23.30
2023-06-29T20:17:37.168Z,23.20
2023-06-29T20:20:04.772Z,23.20
2023-06-29T20:22:34.053Z,23.20
2023-06-29T20:25:03.985Z,23.20
2023-06-29T20:27:30.725Z,23.20
2023-06-29T20:29:59.773Z,23.20
2023-06-29T20:32:29.453Z,23.20
2023-06-29T20:34:56.257Z,23.10
2023-06-29T20:37:22.970Z,23.20
2023-06-29T20:39:49.798Z,23.20
2023-06-29T20:42:16.547Z,23.20
2023-06-29T20:44:43.815Z,23.20
2023-06-29T20:47:11.553Z,23.10
2023-06-29T20:49:38.296Z,23.10
2023-06-29T20:52:07.958Z,23.00
2023-06-29T20:54:34.761Z,23.00
2023-06-29T20:57:03.457Z,23.00
2023-06-29T20:59:32.069Z,23.00
2023-06-29T21:02:01.302Z,23.00
2023-06-29T21:04:32.927Z,23.00
2023-06-29T21:07:02.441Z,23.00
2023-06-29T21:09:29.088Z,23.00
2023-06-29T21:11:56.048Z,23.00
2023-06-29T21:14:23.028Z,22.90
2023-06-29T21:16:49.885Z,22.90
2023-06-29T21:19:16.982Z,22.80
2023-06-29T21:21:44.024Z,22.90
2023-06-29T21:24:11.209Z,22.80
2023-06-29T21:26:38.392Z,22.80
2023-06-29T21:29:22.363Z,22.80
2023-06-29T21:31:54.387Z,22.70
2023-06-29T21:34:21.401Z,22.70
2023-06-29T21:36:48.524Z,22.70
2023-06-29T21:39:15.383Z,22.60
2023-06-29T21:41:42.189Z,22.70
2023-06-29T21:44:11.142Z,22.50
2023-06-29T21:46:37.951Z,22.50
2023-06-29T21:49:05.061Z,22.30
2023-06-29T21:51:32.000Z,22.30
2023-06-29T21:53:58.718Z,22.20
2023-06-29T21:56:28.142Z,22.10
2023-06-29T21:58:54.780Z,22.10
2023-06-29T22:01:21.673Z,22.00
2023-06-29T22:03:48.557Z,21.90
2023-06-29T22:06:15.349Z,21.90
2023-06-29T22:08:42.089Z,21.80
2023-06-29T22:11:11.404Z,21.70
2023-06-29T22:13:43.365Z,21.70
2023-06-29T22:16:12.657Z,21.70
2023-06-29T22:18:39.471Z,21.70
2023-06-29T22:21:06.168Z,21.70
2023-06-29T22:23:35.059Z,21.70
2023-06-29T22:26:01.758Z,21.60
2023-06-29T22:28:31.036Z,21.70
2023-06-29T22:31:00.287Z,21.70
2023-06-29T22:33:29.579Z,21.70
2023-06-29T22:35:56.324Z,21.60
2023-06-29T22:38:23.090Z,21.60
2023-06-29T22:40:50.763Z,21.60
2023-06-29T22:43:17.522Z,21.60
2023-06-29T22:45:45.030Z,21.60
2023-06-29T22:48:11.952Z,21.60
2023-06-29T22:50:43.190Z,21.50
2023-06-29T22:53:10.072Z,21.50
2023-06-29T22:55:36.919Z,21.50
2023-06-29T22:58:08.148Z,21.60
2023-06-29T23:00:34.882Z,21.50
2023-06-29T23:03:01.701Z,21.50
2023-06-29T23:05:28.489Z,21.50
2023-06-29T23:07:55.264Z,21.50
2023-06-29T23:10:22.002Z,21.50
2023-06-29T23:12:51.192Z,21.50
2023-06-29T23:15:18.137Z,21.50
2023-06-29T23:17:45.383Z,21.50
2023-06-29T23:20:13.930Z,21.40
2023-06-29T23:22:42.350Z,21.40
2023-06-29T23:25:10.228Z,21.40
2023-06-29T23:27:45.256Z,21.30
2023-06-29T23:30:13.588Z,21.10
2023-06-29T23:32:41.523Z,20.90
2023-06-29T23:35:09.608Z,20.70
2023-06-29T23:37:39.530Z,20.70
